Observations for LONDON HEATHROW, United Kingdom (EGLL)

EGLL 240850Z AUTO 18005KT 140V230 9999 NCD 22/18 Q1015 NOSIG
EGLL 240820Z AUTO 15004KT 130V190 9999 NCD 23/18 Q1014 NOSIG
EGLL 240750Z AUTO 17006KT 9999 NCD 22/18 Q1014 NOSIG
EGLL 240720Z AUTO 19005KT 9999 NCD 22/18 Q1014 NOSIG
EGLL 240650Z AUTO VRB02KT 9999 NCD 22/18 Q1014 NOSIG
EGLL 240620Z AUTO VRB03KT 8000 NCD 21/17 Q1014 NOSIG
EGLL 240550Z AUTO 06004KT 6000 NCD 20/17 Q1013 NOSIG
EGLL 240520Z AUTO VRB03KT 5000 HZ NCD 18/17 Q1013 NOSIG 
EGLL 240450Z AUTO 05004KT 5000 HZ NCD 18/16 Q1013 NOSIG 
EGLL 240420Z AUTO VRB02KT 5000 HZ NCD 17/16 Q1013 NOSIG 
EGLL 240350Z AUTO 07004KT 5000 HZ NCD 17/16 Q1013 NOSIG 
EGLL 240320Z AUTO 06004KT 6000 NCD 17/16 Q1013 NOSIG
EGLL 240250Z AUTO VRB02KT 7000 NCD 17/16 Q1013 NOSIG
EGLL 240220Z AUTO 07004KT 7000 NCD 17/15 Q1013 NOSIG
EGLL 240150Z AUTO 00000KT 8000 NCD 18/16 Q1014 NOSIG
EGLL 240120Z AUTO VRB02KT 7000 NCD 18/16 Q1014 NOSIG
EGLL 240050Z AUTO 07002KT 7000 NCD 18/16 Q1014 NOSIG
EGLL 240020Z AUTO 07003KT 8000 NCD 18/15 Q1014 NOSIG
EGLL 232350Z AUTO 07003KT 9000 NCD 19/15 Q1014 NOSIG
EGLL 232320Z AUTO 09003KT 9999 NCD 19/15 Q1015 NOSIG
EGLL 232250Z AUTO 08003KT 9999 NCD 19/15 Q1014 NOSIG
EGLL 232220Z AUTO 08005KT 9999 NCD 20/15 Q1014 NOSIG
EGLL 232150Z AUTO 08005KT 9999 NCD 19/15 Q1015 NOSIG
EGLL 232120Z AUTO 08006KT 9999 NCD 20/15 Q1015 NOSIG
EGLL 232050Z AUTO 08009KT 9999 NCD 20/15 Q1015 NOSIG
EGLL 232020Z AUTO 09010KT 9999 NCD 20/15 Q1015 NOSIG
EGLL 231950Z AUTO 08009KT 9999 NCD 21/15 Q1014 NOSIG
EGLL 231920Z AUTO 08007KT 9999 NCD 21/15 Q1014 NOSIG
EGLL 231850Z AUTO 08004KT 9999 NCD 21/14 Q1015 NOSIG
EGLL 231820Z AUTO 09008KT 9999 NCD 21/14 Q1015 NOSIG
EGLL 231750Z AUTO 09011KT 9999 NCD 21/14 Q1015 NOSIG
EGLL 231720Z AUTO 09011KT 9999 FEW049 21/14 Q1015 NOSIG 
EGLL 231650Z AUTO 10012KT 9999 NCD 21/14 Q1015 NOSIG
EGLL 231620Z AUTO 09011KT 9999 NCD 22/14 Q1015 NOSIG
EGLL 231550Z AUTO 09013KT 9999 NCD 22/14 Q1015 NOSIG
EGLL 231520Z AUTO 09013KT 9999 NCD 22/14 Q1015 NOSIG
EGLL 231450Z AUTO 09011KT 9999 NCD 23/14 Q1016 NOSIG
EGLL 231420Z AUTO 10013KT 9999 NCD 23/14 Q1016 NOSIG
EGLL 231350Z AUTO 09012KT 9999 NCD 24/14 Q1015 NOSIG
EGLL 231320Z AUTO 09012KT 9999 NCD 23/14 Q1016 NOSIG
EGLL 231250Z AUTO 09012KT 9999 NCD 24/14 Q1016 NOSIG
EGLL 231220Z AUTO 08010KT 9999 NCD 23/15 Q1016 NOSIG
EGLL 231150Z AUTO 07007KT 9999 NCD 23/14 Q1017 NOSIG
EGLL 231120Z AUTO 08009KT 050V110 9999 NCD 23/15 Q1017 NOSIG
EGLL 231050Z AUTO 08006KT 040V120 9999 NCD 22/15 Q1017 NOSIG
EGLL 231020Z AUTO 06007KT 030V110 9999 NCD 22/15 Q1017 NOSIG
EGLL 230950Z AUTO 08007KT 040V120 9999 NCD 21/14 Q1018 NOSIG
EGLL 230920Z AUTO 08006KT 020V120 9999 NCD 21/15 Q1018 NOSIG
EGLL 230850Z AUTO 09007KT 9999 NCD 20/15 Q1018 NOSIG
EGLL 230820Z AUTO 07005KT 030V110 9999 NCD 19/15 Q1018 NOSIG